sensor_id;sensor_type;location;lat;lon;timestamp;P1;durP1;ratioP1;P2;durP2;ratioP2
22007;SDS011;11168;56.976;24.168;2022-11-20T00:00:23;8.93;;;6.18;;
22007;SDS011;11168;56.976;24.168;2022-11-20T00:02:50;11.73;;;7.97;;
22007;SDS011;11168;56.976;24.168;2022-11-20T00:05:18;14.85;;;8.35;;
22007;SDS011;11168;56.976;24.168;2022-11-20T00:07:45;9.77;;;6.72;;
22007;SDS011;11168;56.976;24.168;2022-11-20T00:10:13;14.18;;;7.88;;
22007;SDS011;11168;56.976;24.168;2022-11-20T00:12:41;13.85;;;7.07;;
22007;SDS011;11168;56.976;24.168;2022-11-20T00:15:09;9.38;;;6.10;;
22007;SDS011;11168;56.976;24.168;2022-11-20T00:17:36;8.55;;;5.95;;
22007;SDS011;11168;56.976;24.168;2022-11-20T00:20:04;11.50;;;7.38;;
22007;SDS011;11168;56.976;24.168;2022-11-20T00:22:32;11.45;;;6.72;;
22007;SDS011;11168;56.976;24.168;2022-11-20T00:24:59;13.10;;;7.28;;
22007;SDS011;11168;56.976;24.168;2022-11-20T00:27:26;11.70;;;7.10;;
22007;SDS011;11168;56.976;24.168;2022-11-20T00:29:53;12.65;;;7.22;;
22007;SDS011;11168;56.976;24.168;2022-11-20T00:32:21;13.02;;;7.57;;
22007;SDS011;11168;56.976;24.168;2022-11-20T00:34:48;11.02;;;6.40;;
22007;SDS011;11168;56.976;24.168;2022-11-20T00:37:15;11.85;;;7.47;;
22007;SDS011;11168;56.976;24.168;2022-11-20T00:39:46;15.30;;;9.25;;
22007;SDS011;11168;56.976;24.168;2022-11-20T00:42:13;9.98;;;6.60;;
22007;SDS011;11168;56.976;24.168;2022-11-20T00:44:40;11.40;;;6.43;;
22007;SDS011;11168;56.976;24.168;2022-11-20T00:47:08;13.38;;;6.50;;
22007;SDS011;11168;56.976;24.168;2022-11-20T00:49:35;11.48;;;6.78;;
22007;SDS011;11168;56.976;24.168;2022-11-20T00:52:02;13.35;;;6.55;;
22007;SDS011;11168;56.976;24.168;2022-11-20T00:54:29;11.25;;;6.13;;
22007;SDS011;11168;56.976;24.168;2022-11-20T00:56:57;10.25;;;6.05;;
22007;SDS011;11168;56.976;24.168;2022-11-20T00:59:24;10.35;;;5.63;;
22007;SDS011;11168;56.976;24.168;2022-11-20T01:01:51;9.88;;;6.10;;
22007;SDS011;11168;56.976;24.168;2022-11-20T01:04:19;10.88;;;6.97;;
22007;SDS011;11168;56.976;24.168;2022-11-20T01:06:46;11.85;;;6.45;;
22007;SDS011;11168;56.976;24.168;2022-11-20T01:09:13;12.85;;;6.90;;
22007;SDS011;11168;56.976;24.168;2022-11-20T01:11:44;13.65;;;7.63;;
22007;SDS011;11168;56.976;24.168;2022-11-20T01:14:13;14.32;;;7.63;;
22007;SDS011;11168;56.976;24.168;2022-11-20T01:16:41;16.05;;;8.48;;
22007;SDS011;11168;56.976;24.168;2022-11-20T01:19:10;11.43;;;6.63;;
22007;SDS011;11168;56.976;24.168;2022-11-20T01:21:43;12.80;;;7.47;;
22007;SDS011;11168;56.976;24.168;2022-11-20T01:24:11;13.70;;;7.78;;
22007;SDS011;11168;56.976;24.168;2022-11-20T01:26:40;13.60;;;8.40;;
22007;SDS011;11168;56.976;24.168;2022-11-20T01:29:09;13.57;;;8.15;;
22007;SDS011;11168;56.976;24.168;2022-11-20T01:31:39;14.60;;;7.80;;
22007;SDS011;11168;56.976;24.168;2022-11-20T01:34:08;13.73;;;7.95;;
22007;SDS011;11168;56.976;24.168;2022-11-20T01:36:36;15.32;;;8.65;;
22007;SDS011;11168;56.976;24.168;2022-11-20T01:39:05;14.07;;;7.70;;
22007;SDS011;11168;56.976;24.168;2022-11-20T01:41:33;13.35;;;7.63;;
22007;SDS011;11168;56.976;24.168;2022-11-20T01:44:21;12.65;;;7.32;;
22007;SDS011;11168;56.976;24.168;2022-11-20T01:46:59;11.43;;;6.28;;
22007;SDS011;11168;56.976;24.168;2022-11-20T01:49:36;14.10;;;8.15;;
22007;SDS011;11168;56.976;24.168;2022-11-20T01:52:14;14.40;;;8.10;;
22007;SDS011;11168;56.976;24.168;2022-11-20T01:54:47;14.90;;;7.47;;
22007;SDS011;11168;56.976;24.168;2022-11-20T01:57:15;14.77;;;7.72;;
22007;SDS011;11168;56.976;24.168;2022-11-20T01:59:44;13.75;;;8.05;;
22007;SDS011;11168;56.976;24.168;2022-11-20T02:02:14;14.25;;;8.52;;
22007;SDS011;11168;56.976;24.168;2022-11-20T02:04:41;15.00;;;8.15;;
22007;SDS011;11168;56.976;24.168;2022-11-20T02:07:09;13.40;;;7.65;;
22007;SDS011;11168;56.976;24.168;2022-11-20T02:09:36;13.50;;;7.20;;
22007;SDS011;11168;56.976;24.168;2022-11-20T02:12:04;14.48;;;7.03;;
22007;SDS011;11168;56.976;24.168;2022-11-20T02:14:31;13.73;;;6.93;;
22007;SDS011;11168;56.976;24.168;2022-11-20T02:16:58;12.88;;;7.65;;
22007;SDS011;11168;56.976;24.168;2022-11-20T02:19:27;11.32;;;7.22;;
22007;SDS011;11168;56.976;24.168;2022-11-20T02:24:28;13.60;;;7.75;;
22007;SDS011;11168;56.976;24.168;2022-11-20T02:26:57;12.77;;;7.65;;
22007;SDS011;11168;56.976;24.168;2022-11-20T02:29:32;10.48;;;6.57;;
22007;SDS011;11168;56.976;24.168;2022-11-20T02:32:02;12.52;;;7.43;;
22007;SDS011;11168;56.976;24.168;2022-11-20T02:34:29;13.75;;;6.55;;
22007;SDS011;11168;56.976;24.168;2022-11-20T02:36:57;12.05;;;7.45;;
22007;SDS011;11168;56.976;24.168;2022-11-20T02:39:25;14.43;;;7.90;;
22007;SDS011;11168;56.976;24.168;2022-11-20T02:41:54;12.73;;;7.18;;
22007;SDS011;11168;56.976;24.168;2022-11-20T02:44:23;13.43;;;7.68;;
22007;SDS011;11168;56.976;24.168;2022-11-20T02:46:50;12.88;;;7.05;;
22007;SDS011;11168;56.976;24.168;2022-11-20T02:49:17;11.68;;;7.25;;
22007;SDS011;11168;56.976;24.168;2022-11-20T02:51:45;11.70;;;6.72;;
22007;SDS011;11168;56.976;24.168;2022-11-20T02:54:12;13.32;;;5.78;;
22007;SDS011;11168;56.976;24.168;2022-11-20T02:56:40;13.15;;;6.97;;
22007;SDS011;11168;56.976;24.168;2022-11-20T02:59:07;14.82;;;7.50;;
22007;SDS011;11168;56.976;24.168;2022-11-20T03:01:34;13.15;;;7.55;;
22007;SDS011;11168;56.976;24.168;2022-11-20T03:04:02;12.73;;;7.32;;
22007;SDS011;11168;56.976;24.168;2022-11-20T03:06:29;13.82;;;7.53;;
22007;SDS011;11168;56.976;24.168;2022-11-20T03:08:57;13.15;;;7.93;;
22007;SDS011;11168;56.976;24.168;2022-11-20T03:11:24;16.13;;;8.90;;
22007;SDS011;11168;56.976;24.168;2022-11-20T03:13:51;16.17;;;8.68;;
22007;SDS011;11168;56.976;24.168;2022-11-20T03:16:20;16.73;;;9.10;;
22007;SDS011;11168;56.976;24.168;2022-11-20T03:18:47;15.13;;;8.30;;
22007;SDS011;11168;56.976;24.168;2022-11-20T03:21:15;13.27;;;6.75;;
22007;SDS011;11168;56.976;24.168;2022-11-20T03:23:42;16.92;;;9.90;;
22007;SDS011;11168;56.976;24.168;2022-11-20T03:26:11;15.13;;;8.90;;
22007;SDS011;11168;56.976;24.168;2022-11-20T03:28:40;15.43;;;9.52;;
22007;SDS011;11168;56.976;24.168;2022-11-20T03:31:09;14.55;;;7.82;;
22007;SDS011;11168;56.976;24.168;2022-11-20T03:33:37;16.67;;;7.97;;
22007;SDS011;11168;56.976;24.168;2022-11-20T03:36:06;16.88;;;9.85;;
22007;SDS011;11168;56.976;24.168;2022-11-20T03:38:33;13.80;;;8.73;;
22007;SDS011;11168;56.976;24.168;2022-11-20T03:41:01;15.27;;;8.95;;
22007;SDS011;11168;56.976;24.168;2022-11-20T03:43:29;17.42;;;9.00;;
22007;SDS011;11168;56.976;24.168;2022-11-20T03:45:56;15.60;;;8.55;;
22007;SDS011;11168;56.976;24.168;2022-11-20T03:48:24;14.60;;;8.85;;
22007;SDS011;11168;56.976;24.168;2022-11-20T03:51:06;13.60;;;7.65;;
22007;SDS011;11168;56.976;24.168;2022-11-20T03:53:33;13.32;;;7.78;;
22007;SDS011;11168;56.976;24.168;2022-11-20T03:56:01;17.63;;;8.63;;
22007;SDS011;11168;56.976;24.168;2022-11-20T03:58:28;17.33;;;8.88;;
22007;SDS011;11168;56.976;24.168;2022-11-20T04:00:55;14.88;;;9.32;;
22007;SDS011;11168;56.976;24.168;2022-11-20T04:03:22;14.95;;;8.80;;
22007;SDS011;11168;56.976;24.168;2022-11-20T04:05:50;16.33;;;8.70;;
22007;SDS011;11168;56.976;24.168;2022-11-20T04:08:17;11.98;;;6.43;;
22007;SDS011;11168;56.976;24.168;2022-11-20T04:10:44;16.05;;;8.93;;
22007;SDS011;11168;56.976;24.168;2022-11-20T04:13:12;14.65;;;8.90;;
22007;SDS011;11168;56.976;24.168;2022-11-20T04:15:39;14.20;;;8.70;;
22007;SDS011;11168;56.976;24.168;2022-11-20T04:18:06;14.60;;;9.02;;
22007;SDS011;11168;56.976;24.168;2022-11-20T04:20:34;16.33;;;8.93;;
22007;SDS011;11168;56.976;24.168;2022-11-20T04:23:02;14.82;;;8.50;;
22007;SDS011;11168;56.976;24.168;2022-11-20T04:25:29;15.50;;;8.43;;
22007;SDS011;11168;56.976;24.168;2022-11-20T04:27:56;14.52;;;8.85;;
22007;SDS011;11168;56.976;24.168;2022-11-20T04:30:23;16.15;;;9.20;;
22007;SDS011;11168;56.976;24.168;2022-11-20T04:32:51;15.50;;;8.68;;
22007;SDS011;11168;56.976;24.168;2022-11-20T04:35:19;16.88;;;9.00;;
22007;SDS011;11168;56.976;24.168;2022-11-20T04:37:46;17.73;;;9.73;;
22007;SDS011;11168;56.976;24.168;2022-11-20T04:40:13;16.88;;;9.85;;
22007;SDS011;11168;56.976;24.168;2022-11-20T04:42:42;17.52;;;9.98;;
22007;SDS011;11168;56.976;24.168;2022-11-20T04:45:09;17.83;;;9.20;;
22007;SDS011;11168;56.976;24.168;2022-11-20T04:47:36;16.25;;;9.35;;
22007;SDS011;11168;56.976;24.168;2022-11-20T04:50:05;17.42;;;9.70;;
22007;SDS011;11168;56.976;24.168;2022-11-20T04:52:32;18.25;;;9.95;;
22007;SDS011;11168;56.976;24.168;2022-11-20T04:55:00;19.08;;;10.45;;
22007;SDS011;11168;56.976;24.168;2022-11-20T04:57:27;19.70;;;9.95;;
22007;SDS011;11168;56.976;24.168;2022-11-20T04:59:54;17.48;;;10.13;;
22007;SDS011;11168;56.976;24.168;2022-11-20T05:02:22;20.27;;;11.00;;
22007;SDS011;11168;56.976;24.168;2022-11-20T05:04:49;18.10;;;9.88;;
22007;SDS011;11168;56.976;24.168;2022-11-20T05:07:18;18.20;;;10.40;;
22007;SDS011;11168;56.976;24.168;2022-11-20T05:09:45;20.02;;;10.63;;
22007;SDS011;11168;56.976;24.168;2022-11-20T05:12:12;17.83;;;10.43;;
22007;SDS011;11168;56.976;24.168;2022-11-20T05:14:40;17.05;;;10.63;;
22007;SDS011;11168;56.976;24.168;2022-11-20T05:17:09;16.08;;;9.55;;
22007;SDS011;11168;56.976;24.168;2022-11-20T05:19:36;15.52;;;9.30;;
22007;SDS011;11168;56.976;24.168;2022-11-20T05:22:04;18.98;;;10.38;;
22007;SDS011;11168;56.976;24.168;2022-11-20T05:24:31;19.65;;;10.43;;
22007;SDS011;11168;56.976;24.168;2022-11-20T05:26:58;21.10;;;11.00;;
22007;SDS011;11168;56.976;24.168;2022-11-20T05:29:26;21.90;;;10.50;;
22007;SDS011;11168;56.976;24.168;2022-11-20T05:31:53;19.48;;;11.23;;
22007;SDS011;11168;56.976;24.168;2022-11-20T05:34:20;22.27;;;10.85;;
22007;SDS011;11168;56.976;24.168;2022-11-20T05:36:48;17.20;;;10.30;;
22007;SDS011;11168;56.976;24.168;2022-11-20T05:39:15;19.10;;;10.20;;
22007;SDS011;11168;56.976;24.168;2022-11-20T05:41:42;19.77;;;10.68;;
22007;SDS011;11168;56.976;24.168;2022-11-20T05:44:10;19.65;;;10.10;;
22007;SDS011;11168;56.976;24.168;2022-11-20T05:46:38;18.13;;;10.65;;
22007;SDS011;11168;56.976;24.168;2022-11-20T05:49:05;15.00;;;9.20;;
22007;SDS011;11168;56.976;24.168;2022-11-20T05:51:32;18.75;;;10.13;;
22007;SDS011;11168;56.976;24.168;2022-11-20T05:53:59;19.75;;;10.30;;
22007;SDS011;11168;56.976;24.168;2022-11-20T05:56:27;18.70;;;9.98;;
22007;SDS011;11168;56.976;24.168;2022-11-20T05:58:54;18.60;;;9.90;;
22007;SDS011;11168;56.976;24.168;2022-11-20T06:01:23;16.08;;;10.05;;
22007;SDS011;11168;56.976;24.168;2022-11-20T06:03:50;19.00;;;9.63;;
22007;SDS011;11168;56.976;24.168;2022-11-20T06:06:19;16.20;;;9.15;;
22007;SDS011;11168;56.976;24.168;2022-11-20T06:08:46;20.40;;;10.50;;
22007;SDS011;11168;56.976;24.168;2022-11-20T06:11:14;19.55;;;10.15;;
22007;SDS011;11168;56.976;24.168;2022-11-20T06:13:42;18.48;;;10.07;;
22007;SDS011;11168;56.976;24.168;2022-11-20T06:16:10;18.33;;;9.70;;
22007;SDS011;11168;56.976;24.168;2022-11-20T06:18:38;21.02;;;9.45;;
22007;SDS011;11168;56.976;24.168;2022-11-20T06:21:09;19.80;;;10.50;;
22007;SDS011;11168;56.976;24.168;2022-11-20T06:23:37;18.85;;;9.90;;
22007;SDS011;11168;56.976;24.168;2022-11-20T06:26:08;16.08;;;9.20;;
22007;SDS011;11168;56.976;24.168;2022-11-20T06:28:36;18.23;;;10.25;;
22007;SDS011;11168;56.976;24.168;2022-11-20T06:31:04;17.52;;;10.40;;
22007;SDS011;11168;56.976;24.168;2022-11-20T06:33:31;15.88;;;9.35;;
22007;SDS011;11168;56.976;24.168;2022-11-20T06:35:59;19.17;;;10.38;;
22007;SDS011;11168;56.976;24.168;2022-11-20T06:38:33;18.40;;;9.75;;
22007;SDS011;11168;56.976;24.168;2022-11-20T06:41:00;19.27;;;10.07;;
22007;SDS011;11168;56.976;24.168;2022-11-20T06:43:28;20.83;;;9.48;;
22007;SDS011;11168;56.976;24.168;2022-11-20T06:45:56;18.85;;;10.38;;
22007;SDS011;11168;56.976;24.168;2022-11-20T06:48:24;18.95;;;9.52;;
22007;SDS011;11168;56.976;24.168;2022-11-20T06:50:52;19.73;;;11.13;;
22007;SDS011;11168;56.976;24.168;2022-11-20T06:53:20;15.77;;;9.68;;
22007;SDS011;11168;56.976;24.168;2022-11-20T06:55:48;17.90;;;10.15;;
22007;SDS011;11168;56.976;24.168;2022-11-20T06:58:16;20.88;;;10.55;;
22007;SDS011;11168;56.976;24.168;2022-11-20T07:00:43;18.05;;;9.80;;
22007;SDS011;11168;56.976;24.168;2022-11-20T07:03:11;18.45;;;10.27;;
22007;SDS011;11168;56.976;24.168;2022-11-20T07:05:38;18.27;;;10.13;;
22007;SDS011;11168;56.976;24.168;2022-11-20T07:08:06;17.90;;;9.13;;
22007;SDS011;11168;56.976;24.168;2022-11-20T07:10:34;15.68;;;9.07;;
22007;SDS011;11168;56.976;24.168;2022-11-20T07:13:01;14.98;;;8.38;;
22007;SDS011;11168;56.976;24.168;2022-11-20T07:15:29;15.82;;;9.40;;
22007;SDS011;11168;56.976;24.168;2022-11-20T07:17:59;17.83;;;9.65;;
22007;SDS011;11168;56.976;24.168;2022-11-20T07:20:27;13.23;;;8.43;;
22007;SDS011;11168;56.976;24.168;2022-11-20T07:22:54;15.65;;;8.75;;
22007;SDS011;11168;56.976;24.168;2022-11-20T07:25:22;14.43;;;9.00;;
22007;SDS011;11168;56.976;24.168;2022-11-20T07:27:50;16.30;;;9.52;;
22007;SDS011;11168;56.976;24.168;2022-11-20T07:30:17;13.77;;;9.13;;
22007;SDS011;11168;56.976;24.168;2022-11-20T07:32:50;14.07;;;8.70;;
22007;SDS011;11168;56.976;24.168;2022-11-20T07:35:18;14.13;;;8.95;;
22007;SDS011;11168;56.976;24.168;2022-11-20T07:37:45;13.13;;;8.73;;
22007;SDS011;11168;56.976;24.168;2022-11-20T07:40:13;13.98;;;8.45;;
22007;SDS011;11168;56.976;24.168;2022-11-20T07:42:50;15.02;;;9.02;;
22007;SDS011;11168;56.976;24.168;2022-11-20T07:45:18;17.50;;;10.00;;
22007;SDS011;11168;56.976;24.168;2022-11-20T07:47:46;19.65;;;9.98;;
22007;SDS011;11168;56.976;24.168;2022-11-20T07:50:13;15.82;;;9.65;;
22007;SDS011;11168;56.976;24.168;2022-11-20T07:52:41;14.50;;;9.05;;
22007;SDS011;11168;56.976;24.168;2022-11-20T07:55:08;15.27;;;8.90;;
22007;SDS011;11168;56.976;24.168;2022-11-20T07:57:36;14.27;;;8.75;;
22007;SDS011;11168;56.976;24.168;2022-11-20T08:00:03;13.32;;;8.32;;
22007;SDS011;11168;56.976;24.168;2022-11-20T08:02:31;13.82;;;8.00;;
22007;SDS011;11168;56.976;24.168;2022-11-20T08:04:58;12.43;;;7.88;;
22007;SDS011;11168;56.976;24.168;2022-11-20T08:07:25;12.02;;;7.97;;
22007;SDS011;11168;56.976;24.168;2022-11-20T08:09:53;13.93;;;8.23;;
22007;SDS011;11168;56.976;24.168;2022-11-20T08:12:20;12.70;;;8.13;;
22007;SDS011;11168;56.976;24.168;2022-11-20T08:15:07;14.80;;;8.32;;
22007;SDS011;11168;56.976;24.168;2022-11-20T08:17:38;14.55;;;8.55;;
22007;SDS011;11168;56.976;24.168;2022-11-20T08:20:06;12.80;;;8.77;;
22007;SDS011;11168;56.976;24.168;2022-11-20T08:22:33;13.90;;;8.55;;
22007;SDS011;11168;56.976;24.168;2022-11-20T08:25:00;14.60;;;9.38;;
22007;SDS011;11168;56.976;24.168;2022-11-20T08:27:28;16.73;;;9.32;;
22007;SDS011;11168;56.976;24.168;2022-11-20T08:29:55;15.27;;;9.00;;
22007;SDS011;11168;56.976;24.168;2022-11-20T08:32:23;13.70;;;9.05;;
22007;SDS011;11168;56.976;24.168;2022-11-20T08:34:53;14.07;;;8.75;;
22007;SDS011;11168;56.976;24.168;2022-11-20T08:37:20;16.02;;;9.20;;
22007;SDS011;11168;56.976;24.168;2022-11-20T08:39:47;17.85;;;8.52;;
22007;SDS011;11168;56.976;24.168;2022-11-20T08:42:14;14.57;;;9.30;;
22007;SDS011;11168;56.976;24.168;2022-11-20T08:44:42;16.75;;;10.30;;
22007;SDS011;11168;56.976;24.168;2022-11-20T08:47:09;17.75;;;9.65;;
22007;SDS011;11168;56.976;24.168;2022-11-20T08:49:36;16.73;;;10.13;;
22007;SDS011;11168;56.976;24.168;2022-11-20T08:52:04;16.15;;;9.93;;
22007;SDS011;11168;56.976;24.168;2022-11-20T08:54:31;16.02;;;10.15;;
22007;SDS011;11168;56.976;24.168;2022-11-20T08:56:59;17.63;;;10.23;;
22007;SDS011;11168;56.976;24.168;2022-11-20T08:59:26;18.90;;;11.18;;
22007;SDS011;11168;56.976;24.168;2022-11-20T09:02:13;20.70;;;12.98;;
22007;SDS011;11168;56.976;24.168;2022-11-20T09:04:41;19.17;;;12.73;;
22007;SDS011;11168;56.976;24.168;2022-11-20T09:07:08;19.88;;;12.15;;
22007;SDS011;11168;56.976;24.168;2022-11-20T09:09:36;19.95;;;12.13;;
22007;SDS011;11168;56.976;24.168;2022-11-20T09:12:04;22.67;;;11.98;;
22007;SDS011;11168;56.976;24.168;2022-11-20T09:14:31;19.98;;;11.98;;
22007;SDS011;11168;56.976;24.168;2022-11-20T09:16:58;20.83;;;11.00;;
22007;SDS011;11168;56.976;24.168;2022-11-20T09:19:26;20.80;;;12.27;;
22007;SDS011;11168;56.976;24.168;2022-11-20T09:22:06;21.20;;;11.30;;
22007;SDS011;11168;56.976;24.168;2022-11-20T09:24:33;17.55;;;10.70;;
22007;SDS011;11168;56.976;24.168;2022-11-20T09:27:03;19.83;;;11.95;;
22007;SDS011;11168;56.976;24.168;2022-11-20T09:29:31;21.10;;;12.50;;
22007;SDS011;11168;56.976;24.168;2022-11-20T09:31:58;18.38;;;11.43;;
22007;SDS011;11168;56.976;24.168;2022-11-20T09:34:26;20.60;;;11.90;;
22007;SDS011;11168;56.976;24.168;2022-11-20T09:36:53;19.95;;;12.05;;
22007;SDS011;11168;56.976;24.168;2022-11-20T09:39:20;18.00;;;11.90;;
22007;SDS011;11168;56.976;24.168;2022-11-20T09:44:50;22.20;;;12.93;;
22007;SDS011;11168;56.976;24.168;2022-11-20T09:50:25;22.50;;;13.68;;
22007;SDS011;11168;56.976;24.168;2022-11-20T09:55:40;21.92;;;11.48;;
22007;SDS011;11168;56.976;24.168;2022-11-20T09:58:12;27.48;;;14.65;;
22007;SDS011;11168;56.976;24.168;2022-11-20T10:00:41;22.70;;;14.18;;
22007;SDS011;11168;56.976;24.168;2022-11-20T10:03:13;24.35;;;13.73;;
22007;SDS011;11168;56.976;24.168;2022-11-20T10:10:45;20.55;;;12.60;;
22007;SDS011;11168;56.976;24.168;2022-11-20T10:23:43;20.83;;;12.07;;
22007;SDS011;11168;56.976;24.168;2022-11-20T10:34:40;21.48;;;13.63;;
22007;SDS011;11168;56.976;24.168;2022-11-20T10:39:39;21.25;;;13.40;;
22007;SDS011;11168;56.976;24.168;2022-11-20T10:42:11;22.48;;;12.95;;
22007;SDS011;11168;56.976;24.168;2022-11-20T10:47:31;22.83;;;13.52;;
22007;SDS011;11168;56.976;24.168;2022-11-20T10:50:01;21.08;;;13.85;;
22007;SDS011;11168;56.976;24.168;2022-11-20T11:00:12;23.30;;;13.68;;
22007;SDS011;11168;56.976;24.168;2022-11-20T11:02:41;21.95;;;13.55;;
22007;SDS011;11168;56.976;24.168;2022-11-20T11:05:11;20.00;;;12.77;;
22007;SDS011;11168;56.976;24.168;2022-11-20T11:10:18;22.20;;;13.45;;
22007;SDS011;11168;56.976;24.168;2022-11-20T11:12:46;21.05;;;13.00;;
22007;SDS011;11168;56.976;24.168;2022-11-20T11:15:30;20.45;;;13.05;;
22007;SDS011;11168;56.976;24.168;2022-11-20T11:18:03;22.23;;;12.70;;
22007;SDS011;11168;56.976;24.168;2022-11-20T11:20:30;20.67;;;12.18;;
22007;SDS011;11168;56.976;24.168;2022-11-20T11:22:59;24.15;;;14.20;;
22007;SDS011;11168;56.976;24.168;2022-11-20T11:25:34;26.08;;;15.15;;
22007;SDS011;11168;56.976;24.168;2022-11-20T11:30:44;25.05;;;14.60;;
22007;SDS011;11168;56.976;24.168;2022-11-20T11:33:18;21.85;;;13.57;;
22007;SDS011;11168;56.976;24.168;2022-11-20T11:35:52;24.30;;;13.57;;
22007;SDS011;11168;56.976;24.168;2022-11-20T11:38:22;21.80;;;12.52;;
22007;SDS011;11168;56.976;24.168;2022-11-20T11:40:53;22.48;;;12.35;;
22007;SDS011;11168;56.976;24.168;2022-11-20T11:43:24;24.67;;;13.48;;
22007;SDS011;11168;56.976;24.168;2022-11-20T11:54:23;20.58;;;12.45;;
22007;SDS011;11168;56.976;24.168;2022-11-20T11:56:51;20.30;;;12.80;;
22007;SDS011;11168;56.976;24.168;2022-11-20T11:59:25;20.92;;;12.57;;
22007;SDS011;11168;56.976;24.168;2022-11-20T12:01:55;20.52;;;12.18;;
22007;SDS011;11168;56.976;24.168;2022-11-20T12:10:15;22.95;;;13.88;;
22007;SDS011;11168;56.976;24.168;2022-11-20T12:12:44;23.88;;;13.48;;
22007;SDS011;11168;56.976;24.168;2022-11-20T12:15:16;23.58;;;13.35;;
22007;SDS011;11168;56.976;24.168;2022-11-20T12:17:47;24.33;;;14.52;;
22007;SDS011;11168;56.976;24.168;2022-11-20T12:20:14;23.75;;;14.07;;
22007;SDS011;11168;56.976;24.168;2022-11-20T12:25:29;23.98;;;14.02;;
22007;SDS011;11168;56.976;24.168;2022-11-20T12:30:24;31.02;;;14.45;;
22007;SDS011;11168;56.976;24.168;2022-11-20T12:40:42;27.48;;;14.25;;
22007;SDS011;11168;56.976;24.168;2022-11-20T13:04:13;24.00;;;13.30;;
22007;SDS011;11168;56.976;24.168;2022-11-20T13:06:45;25.42;;;13.85;;
22007;SDS011;11168;56.976;24.168;2022-11-20T13:09:13;28.92;;;16.02;;
22007;SDS011;11168;56.976;24.168;2022-11-20T13:11:43;24.17;;;11.63;;
22007;SDS011;11168;56.976;24.168;2022-11-20T13:19:11;23.05;;;12.52;;
22007;SDS011;11168;56.976;24.168;2022-11-20T13:21:40;25.83;;;12.60;;
22007;SDS011;11168;56.976;24.168;2022-11-20T13:24:19;27.38;;;11.93;;
22007;SDS011;11168;56.976;24.168;2022-11-20T13:30:00;24.33;;;12.18;;
22007;SDS011;11168;56.976;24.168;2022-11-20T13:32:28;25.23;;;11.88;;
22007;SDS011;11168;56.976;24.168;2022-11-20T13:34:59;25.25;;;12.27;;
22007;SDS011;11168;56.976;24.168;2022-11-20T13:37:35;21.25;;;10.82;;
22007;SDS011;11168;56.976;24.168;2022-11-20T13:45:10;26.30;;;12.35;;
22007;SDS011;11168;56.976;24.168;2022-11-20T13:47:46;28.65;;;13.32;;
22007;SDS011;11168;56.976;24.168;2022-11-20T13:50:14;22.20;;;11.18;;
22007;SDS011;11168;56.976;24.168;2022-11-20T14:01:12;22.42;;;11.85;;
22007;SDS011;11168;56.976;24.168;2022-11-20T14:03:41;23.85;;;12.55;;
22007;SDS011;11168;56.976;24.168;2022-11-20T14:06:29;23.08;;;12.35;;
22007;SDS011;11168;56.976;24.168;2022-11-20T14:08:58;23.85;;;11.13;;
22007;SDS011;11168;56.976;24.168;2022-11-20T14:11:30;24.17;;;12.30;;
22007;SDS011;11168;56.976;24.168;2022-11-20T14:14:32;23.55;;;11.23;;
22007;SDS011;11168;56.976;24.168;2022-11-20T14:16:52;24.52;;;12.93;;
22007;SDS011;11168;56.976;24.168;2022-11-20T14:24:18;26.33;;;12.90;;
22007;SDS011;11168;56.976;24.168;2022-11-20T14:26:46;25.33;;;12.40;;
22007;SDS011;11168;56.976;24.168;2022-11-20T14:29:14;28.48;;;12.98;;
22007;SDS011;11168;56.976;24.168;2022-11-20T14:31:42;28.73;;;13.13;;
22007;SDS011;11168;56.976;24.168;2022-11-20T14:34:20;26.77;;;13.30;;
22007;SDS011;11168;56.976;24.168;2022-11-20T14:36:50;25.05;;;13.27;;
22007;SDS011;11168;56.976;24.168;2022-11-20T14:39:20;22.35;;;12.02;;
22007;SDS011;11168;56.976;24.168;2022-11-20T14:41:51;21.52;;;12.02;;
22007;SDS011;11168;56.976;24.168;2022-11-20T14:44:19;22.70;;;12.43;;
22007;SDS011;11168;56.976;24.168;2022-11-20T14:46:48;23.98;;;11.85;;
22007;SDS011;11168;56.976;24.168;2022-11-20T14:49:17;25.27;;;12.68;;
22007;SDS011;11168;56.976;24.168;2022-11-20T14:51:45;23.80;;;12.60;;
22007;SDS011;11168;56.976;24.168;2022-11-20T14:54:16;25.92;;;13.40;;
22007;SDS011;11168;56.976;24.168;2022-11-20T14:56:57;21.15;;;11.20;;
22007;SDS011;11168;56.976;24.168;2022-11-20T14:59:25;39.50;;;18.17;;
22007;SDS011;11168;56.976;24.168;2022-11-20T15:02:11;22.33;;;11.73;;
22007;SDS011;11168;56.976;24.168;2022-11-20T15:04:46;22.52;;;12.25;;
22007;SDS011;11168;56.976;24.168;2022-11-20T15:07:23;27.20;;;12.30;;
22007;SDS011;11168;56.976;24.168;2022-11-20T15:10:02;21.33;;;11.98;;
22007;SDS011;11168;56.976;24.168;2022-11-20T15:12:30;24.52;;;11.70;;
22007;SDS011;11168;56.976;24.168;2022-11-20T15:14:58;20.88;;;12.10;;
22007;SDS011;11168;56.976;24.168;2022-11-20T15:17:26;23.02;;;12.63;;
22007;SDS011;11168;56.976;24.168;2022-11-20T15:19:54;20.75;;;11.27;;
22007;SDS011;11168;56.976;24.168;2022-11-20T15:22:21;18.95;;;10.88;;
22007;SDS011;11168;56.976;24.168;2022-11-20T15:24:49;24.02;;;11.48;;
22007;SDS011;11168;56.976;24.168;2022-11-20T15:27:16;18.25;;;10.13;;
22007;SDS011;11168;56.976;24.168;2022-11-20T15:29:43;20.25;;;10.68;;
22007;SDS011;11168;56.976;24.168;2022-11-20T15:32:11;22.00;;;11.70;;
22007;SDS011;11168;56.976;24.168;2022-11-20T15:34:39;21.38;;;10.55;;
22007;SDS011;11168;56.976;24.168;2022-11-20T15:37:06;18.83;;;10.07;;
22007;SDS011;11168;56.976;24.168;2022-11-20T15:39:33;20.77;;;9.90;;
22007;SDS011;11168;56.976;24.168;2022-11-20T15:42:01;18.65;;;9.68;;
22007;SDS011;11168;56.976;24.168;2022-11-20T15:44:28;18.02;;;9.95;;
22007;SDS011;11168;56.976;24.168;2022-11-20T15:46:55;20.95;;;10.43;;
22007;SDS011;11168;56.976;24.168;2022-11-20T15:49:23;16.55;;;9.88;;
22007;SDS011;11168;56.976;24.168;2022-11-20T15:51:51;17.05;;;9.68;;
22007;SDS011;11168;56.976;24.168;2022-11-20T15:54:20;19.55;;;11.15;;
22007;SDS011;11168;56.976;24.168;2022-11-20T15:56:49;24.55;;;10.35;;
22007;SDS011;11168;56.976;24.168;2022-11-20T15:59:20;19.80;;;9.98;;
22007;SDS011;11168;56.976;24.168;2022-11-20T16:01:47;22.25;;;10.40;;
22007;SDS011;11168;56.976;24.168;2022-11-20T16:04:15;22.08;;;11.32;;
22007;SDS011;11168;56.976;24.168;2022-11-20T16:06:42;22.95;;;10.95;;
22007;SDS011;11168;56.976;24.168;2022-11-20T16:09:10;18.92;;;9.95;;
22007;SDS011;11168;56.976;24.168;2022-11-20T16:11:37;20.42;;;10.73;;
22007;SDS011;11168;56.976;24.168;2022-11-20T16:14:05;18.33;;;10.18;;
22007;SDS011;11168;56.976;24.168;2022-11-20T16:16:51;19.05;;;10.23;;
22007;SDS011;11168;56.976;24.168;2022-11-20T16:19:19;17.77;;;9.50;;
22007;SDS011;11168;56.976;24.168;2022-11-20T16:21:46;16.85;;;9.02;;
22007;SDS011;11168;56.976;24.168;2022-11-20T16:24:14;15.40;;;9.35;;
22007;SDS011;11168;56.976;24.168;2022-11-20T16:26:42;16.50;;;9.20;;
22007;SDS011;11168;56.976;24.168;2022-11-20T16:29:10;16.83;;;9.55;;
22007;SDS011;11168;56.976;24.168;2022-11-20T16:31:37;18.38;;;8.95;;
22007;SDS011;11168;56.976;24.168;2022-11-20T16:34:05;17.23;;;10.30;;